createdAt,value
2019-02-21T00:02:31.049Z,57.29
2019-02-21T00:05:32.988Z,57.12
2019-02-21T00:08:34.931Z,57.01
2019-02-21T00:11:37.346Z,56.82
2019-02-21T00:14:39.424Z,56.57
2019-02-21T00:17:41.426Z,56.55
2019-02-21T00:20:43.505Z,56.26
2019-02-21T00:23:45.502Z,56.12
2019-02-21T00:26:47.481Z,56.01
2019-02-21T00:29:49.413Z,56.17
2019-02-21T00:32:51.321Z,56.53
2019-02-21T00:35:53.400Z,56.89
2019-02-21T00:38:55.400Z,56.99
2019-02-21T00:41:57.371Z,56.94
2019-02-21T00:44:59.319Z,56.90
2019-02-21T00:48:01.436Z,56.96
2019-02-21T00:51:03.358Z,56.87
2019-02-21T00:54:05.308Z,56.87
2019-02-21T00:57:07.305Z,56.83
2019-02-21T01:00:11.831Z,56.90
2019-02-21T01:03:13.779Z,56.90
2019-02-21T01:06:15.775Z,56.91
2019-02-21T01:09:17.852Z,56.88
2019-02-21T01:12:19.924Z,56.88
2019-02-21T01:15:21.840Z,56.89
2019-02-21T01:18:23.820Z,56.87
2019-02-21T01:21:25.692Z,56.82
2019-02-21T01:24:27.663Z,56.68
2019-02-21T01:27:29.629Z,56.64
2019-02-21T01:30:31.536Z,56.67
2019-02-21T01:33:33.507Z,56.58
2019-02-21T01:36:35.527Z,56.60
2019-02-21T01:39:37.498Z,56.61
2019-02-21T01:42:39.450Z,56.74
2019-02-21T01:45:41.555Z,56.83
2019-02-21T01:48:43.452Z,56.84
2019-02-21T01:51:45.345Z,56.91
2019-02-21T01:54:47.215Z,57.04
2019-02-21T01:57:49.958Z,57.17
2019-02-21T02:00:51.941Z,57.15
2019-02-21T02:03:53.898Z,57.12
2019-02-21T02:06:55.801Z,57.06
2019-02-21T02:09:57.822Z,57.04
2019-02-21T02:12:59.707Z,57.10
2019-02-21T02:16:01.611Z,57.11
2019-02-21T02:19:03.515Z,57.21
2019-02-21T02:22:05.402Z,57.09
2019-02-21T02:25:07.347Z,57.03
2019-02-21T02:28:09.410Z,57.05
2019-02-21T02:31:22.100Z,57.01
2019-02-21T02:34:15.992Z,57.10
2019-02-21T02:37:18.002Z,57.04
2019-02-21T02:40:19.875Z,57.00
2019-02-21T02:43:22.315Z,57.09
2019-02-21T02:46:24.230Z,57.10
2019-02-21T02:49:26.181Z,57.24
2019-02-21T02:52:28.087Z,57.33
2019-02-21T02:55:30.021Z,57.26
2019-02-21T02:58:32.029Z,57.21
2019-02-21T03:01:35.190Z,57.04
2019-02-21T03:04:37.581Z,56.99
2019-02-21T03:07:39.505Z,57.09
2019-02-21T03:10:41.404Z,57.04
2019-02-21T03:13:43.303Z,57.09
2019-02-21T03:16:45.258Z,57.04
2019-02-21T03:19:47.218Z,57.06
2019-02-21T03:22:49.551Z,57.14
2019-02-21T03:25:52.270Z,57.17
2019-02-21T03:28:54.245Z,57.17
2019-02-21T03:31:56.510Z,57.17
2019-02-21T03:34:58.650Z,57.20
2019-02-21T03:38:00.807Z,57.19
2019-02-21T03:41:02.873Z,57.19
2019-02-21T03:44:04.874Z,57.22
2019-02-21T03:47:06.787Z,57.03
2019-02-21T03:50:09.957Z,57.11
2019-02-21T03:53:11.836Z,57.15
2019-02-21T03:56:13.785Z,57.08
2019-02-21T03:59:16.131Z,57.05
2019-02-21T04:02:18.037Z,56.95
2019-02-21T04:05:20.061Z,56.89
2019-02-21T04:08:22.165Z,56.92
2019-02-21T04:11:24.048Z,56.86
2019-02-21T04:14:26.126Z,56.83
2019-02-21T04:17:28.021Z,56.82
2019-02-21T04:20:29.942Z,56.92
2019-02-21T04:23:31.815Z,56.90
2019-02-21T04:26:33.716Z,56.86
2019-02-21T04:29:35.653Z,57.00
2019-02-21T04:32:37.596Z,57.00
2019-02-21T04:35:39.542Z,56.97
2019-02-21T04:38:41.582Z,57.02
2019-02-21T04:41:43.456Z,57.17
2019-02-21T04:44:45.354Z,57.21
2019-02-21T04:47:47.243Z,57.23
2019-02-21T04:50:49.208Z,57.09
2019-02-21T04:53:51.107Z,56.96
2019-02-21T04:56:53.096Z,56.87
2019-02-21T04:59:56.186Z,56.84
2019-02-21T05:02:58.126Z,56.76
2019-02-21T05:06:00.026Z,56.84
2019-02-21T05:09:01.965Z,56.86
2019-02-21T05:12:05.675Z,56.80
2019-02-21T05:15:08.998Z,56.85
2019-02-21T05:18:10.947Z,56.82
2019-02-21T05:21:12.823Z,56.92
2019-02-21T05:24:14.813Z,57.02
2019-02-21T05:27:18.547Z,57.14
2019-02-21T05:30:22.377Z,57.26
2019-02-21T05:33:41.517Z,57.39
2019-02-21T05:36:51.071Z,57.42
2019-02-21T05:40:03.129Z,57.58
2019-02-21T05:43:06.724Z,57.70
2019-02-21T05:46:13.472Z,57.79
2019-02-21T05:49:20.231Z,57.85
2019-02-21T05:52:26.816Z,57.83
2019-02-21T05:55:30.486Z,57.87
2019-02-21T05:58:37.018Z,57.98
2019-02-21T06:01:40.831Z,57.94
2019-02-21T06:04:47.464Z,57.95
2019-02-21T06:08:05.985Z,57.92
2019-02-21T06:11:18.030Z,57.88
2019-02-21T06:14:24.012Z,57.78
2019-02-21T06:17:30.718Z,57.74
2019-02-21T06:20:40.927Z,57.64
2019-02-21T06:23:49.226Z,57.42
2019-02-21T06:26:53.173Z,57.06
2019-02-21T06:30:00.348Z,56.94
2019-02-21T06:33:05.402Z,56.85
2019-02-21T06:36:06.595Z,56.83
2019-02-21T06:39:08.513Z,56.96
2019-02-21T06:42:10.564Z,56.92
2019-02-21T06:45:12.490Z,56.89
2019-02-21T06:48:14.433Z,56.89
2019-02-21T06:51:16.347Z,56.78
2019-02-21T06:54:18.529Z,56.58
2019-02-21T06:57:20.453Z,56.26
2019-02-21T07:00:22.461Z,56.01
2019-02-21T07:03:25.971Z,55.51
2019-02-21T07:06:31.989Z,54.77
2019-02-21T07:09:31.856Z,53.89
2019-02-21T07:12:33.831Z,52.55
2019-02-21T07:15:35.779Z,51.67
2019-02-21T07:18:37.757Z,51.05
2019-02-21T07:21:39.650Z,50.70
2019-02-21T07:24:42.738Z,50.60
2019-02-21T07:27:44.628Z,49.91
2019-02-21T07:30:47.175Z,49.87
2019-02-21T07:33:49.195Z,49.35
2019-02-21T07:36:51.123Z,49.16
2019-02-21T07:39:53.141Z,49.68
2019-02-21T07:42:55.299Z,49.72
2019-02-21T07:45:57.226Z,49.82
2019-02-21T07:49:00.299Z,49.39
2019-02-21T07:52:02.211Z,48.58
2019-02-21T07:55:06.815Z,48.39
2019-02-21T07:58:08.734Z,47.67
2019-02-21T08:01:10.694Z,47.03
2019-02-21T08:04:14.420Z,46.86
2019-02-21T08:07:16.359Z,46.85
2019-02-21T08:10:21.048Z,46.40
2019-02-21T08:13:22.198Z,47.12
2019-02-21T08:16:24.165Z,46.85
2019-02-21T08:19:26.051Z,47.31
2019-02-21T08:22:28.005Z,47.32
2019-02-21T08:25:29.993Z,46.88
2019-02-21T08:28:31.859Z,47.28
2019-02-21T08:31:34.883Z,47.42
2019-02-21T08:34:38.694Z,46.77
2019-02-21T08:37:40.650Z,47.20
2019-02-21T08:40:42.564Z,47.54
2019-02-21T08:43:44.609Z,47.58
2019-02-21T08:46:46.537Z,47.60
2019-02-21T08:49:48.503Z,47.92
2019-02-21T08:52:50.445Z,47.92
2019-02-21T08:55:52.419Z,48.12
2019-02-21T08:58:54.418Z,47.68
2019-02-21T09:01:56.484Z,47.70
2019-02-21T09:04:59.038Z,47.60
2019-02-21T09:08:01.022Z,47.76
2019-02-21T09:11:04.043Z,47.72
2019-02-21T09:14:06.275Z,47.11
2019-02-21T09:17:08.262Z,47.21
2019-02-21T09:20:10.765Z,47.08
2019-02-21T09:23:15.659Z,46.44
2019-02-21T09:26:16.707Z,45.83
2019-02-21T09:29:18.603Z,46.08
2019-02-21T09:32:20.499Z,45.72
2019-02-21T09:35:22.592Z,45.22
2019-02-21T09:38:24.491Z,45.65
2019-02-21T09:41:28.554Z,45.70
2019-02-21T09:44:30.394Z,45.75
2019-02-21T09:47:32.303Z,45.65
2019-02-21T09:50:34.288Z,45.72
2019-02-21T09:53:36.235Z,45.71
2019-02-21T09:56:38.196Z,46.22
2019-02-21T09:59:40.075Z,46.17
2019-02-21T10:02:42.218Z,46.28
2019-02-21T10:05:44.438Z,46.22
2019-02-21T10:08:46.401Z,46.28
2019-02-21T10:11:48.327Z,46.27
2019-02-21T10:14:50.282Z,46.46
2019-02-21T10:17:52.226Z,46.92
2019-02-21T10:20:54.192Z,47.15
2019-02-21T10:23:56.876Z,46.79
2019-02-21T10:26:59.292Z,47.66
2019-02-21T10:30:01.157Z,47.58
2019-02-21T10:33:03.113Z,47.52
2019-02-21T10:36:05.101Z,47.80
2019-02-21T10:39:07.031Z,49.09
2019-02-21T10:42:08.965Z,48.86
2019-02-21T10:45:14.396Z,49.39
2019-02-21T10:48:16.311Z,50.00
2019-02-21T10:51:18.289Z,50.33
2019-02-21T10:54:20.197Z,50.63
2019-02-21T10:57:22.297Z,51.04
2019-02-21T11:00:26.722Z,51.18
2019-02-21T11:03:28.734Z,51.29
2019-02-21T11:06:31.202Z,51.54
2019-02-21T11:09:33.167Z,50.83
2019-02-21T11:12:35.083Z,50.49
2019-02-21T11:15:37.106Z,50.31
2019-02-21T11:18:39.059Z,50.13
2019-02-21T11:21:40.994Z,49.97
2019-02-21T11:24:43.036Z,49.86
2019-02-21T11:27:45.006Z,49.71
2019-02-21T11:30:46.995Z,49.82
2019-02-21T11:33:48.840Z,49.59
2019-02-21T11:36:50.851Z,49.60
2019-02-21T11:39:52.859Z,49.59
2019-02-21T11:42:54.844Z,50.15
2019-02-21T11:45:57.514Z,50.12
2019-02-21T11:48:59.662Z,50.33
2019-02-21T11:52:09.813Z,50.49
2019-02-21T11:55:08.639Z,50.91
2019-02-21T11:58:11.820Z,50.90
2019-02-21T12:01:13.815Z,50.37
2019-02-21T12:04:15.761Z,49.91
2019-02-21T12:07:17.934Z,49.69
2019-02-21T12:10:20.034Z,49.96
2019-02-21T12:13:22.009Z,50.28
2019-02-21T12:16:23.951Z,50.81
2019-02-21T12:19:25.957Z,51.24
2019-02-21T12:22:27.897Z,50.78
2019-02-21T12:25:29.853Z,51.06
2019-02-21T12:28:35.233Z,50.23
2019-02-21T12:31:37.274Z,50.39
2019-02-21T12:34:39.343Z,50.14
2019-02-21T12:37:41.305Z,50.31
2019-02-21T12:40:43.231Z,50.50
2019-02-21T12:43:45.198Z,50.66
2019-02-21T12:46:47.353Z,50.70
2019-02-21T12:49:49.256Z,50.98
2019-02-21T12:52:51.229Z,50.86
2019-02-21T12:55:53.161Z,51.13
2019-02-21T12:58:55.154Z,50.14
2019-02-21T13:01:57.061Z,50.98
2019-02-21T13:04:59.038Z,51.82
2019-02-21T13:08:01.043Z,52.93
2019-02-21T13:11:03.068Z,53.64
2019-02-21T13:14:04.989Z,54.12
2019-02-21T13:17:07.571Z,54.25
2019-02-21T13:20:12.185Z,53.64
2019-02-21T13:23:14.358Z,53.83
2019-02-21T13:26:16.693Z,54.06
2019-02-21T13:29:18.700Z,54.27
2019-02-21T13:32:20.578Z,54.83
2019-02-21T13:35:22.484Z,55.06
2019-02-21T13:38:24.515Z,55.22
2019-02-21T13:41:26.442Z,55.64
2019-02-21T13:44:28.361Z,56.30
2019-02-21T13:47:30.543Z,57.36
2019-02-21T13:50:32.543Z,57.34
2019-02-21T13:53:34.459Z,57.56
2019-02-21T13:56:36.484Z,57.18
2019-02-21T13:59:38.342Z,57.46
2019-02-21T14:02:40.247Z,57.87
2019-02-21T14:05:42.179Z,58.09
2019-02-21T14:08:44.842Z,58.19
2019-02-21T14:11:47.905Z,58.42
2019-02-21T14:14:49.993Z,58.73
2019-02-21T14:17:51.899Z,59.39
2019-02-21T14:20:53.841Z,59.63
2019-02-21T14:23:55.773Z,59.21
2019-02-21T14:26:57.711Z,59.89
2019-02-21T14:29:59.719Z,60.43
2019-02-21T14:33:01.660Z,60.49
2019-02-21T14:36:15.208Z,60.66
2019-02-21T14:39:10.628Z,60.17
2019-02-21T14:42:13.033Z,61.05
2019-02-21T14:45:20.498Z,61.02
2019-02-21T14:48:22.568Z,61.59
2019-02-21T14:51:24.498Z,61.70
2019-02-21T14:54:26.453Z,61.67
2019-02-21T14:57:28.439Z,61.74
2019-02-21T15:00:30.407Z,61.71
2019-02-21T15:03:32.306Z,61.58
2019-02-21T15:06:34.550Z,61.68
2019-02-21T15:09:36.567Z,61.59
2019-02-21T15:12:38.672Z,61.61
2019-02-21T15:15:40.792Z,61.88
2019-02-21T15:18:42.795Z,61.60
2019-02-21T15:21:44.797Z,61.74
2019-02-21T15:24:49.351Z,61.72
2019-02-21T15:27:51.224Z,61.84
2019-02-21T15:30:54.264Z,61.83
2019-02-21T15:33:56.259Z,61.82
2019-02-21T15:36:58.380Z,62.24
2019-02-21T15:40:01.115Z,62.26
2019-02-21T15:43:05.301Z,62.44
2019-02-21T15:46:07.564Z,62.58
2019-02-21T15:49:09.729Z,62.35
2019-02-21T15:52:21.777Z,62.57
2019-02-21T15:55:17.553Z,62.67
2019-02-21T15:58:22.043Z,63.03
2019-02-21T16:01:24.085Z,63.15
2019-02-21T16:04:26.220Z,63.42
2019-02-21T16:07:28.699Z,63.28
2019-02-21T16:10:30.785Z,63.25
2019-02-21T16:13:32.970Z,63.32
2019-02-21T16:16:35.512Z,63.19
2019-02-21T16:19:37.510Z,63.37
2019-02-21T16:22:39.641Z,63.26
2019-02-21T16:25:41.528Z,63.24
2019-02-21T16:28:46.189Z,63.35
2019-02-21T16:31:50.477Z,63.70
2019-02-21T16:34:54.407Z,63.37
2019-02-21T16:37:56.397Z,63.55
2019-02-21T16:41:03.028Z,63.42
2019-02-21T16:44:07.092Z,63.31
2019-02-21T16:47:09.497Z,63.20
2019-02-21T16:50:13.855Z,63.06
2019-02-21T16:53:15.778Z,62.97
2019-02-21T16:56:20.077Z,62.92
2019-02-21T16:59:25.471Z,62.86
2019-02-21T17:02:27.469Z,62.80
2019-02-21T17:05:29.498Z,62.89
2019-02-21T17:08:31.938Z,62.81
2019-02-21T17:11:35.593Z,62.67
2019-02-21T17:14:37.551Z,62.74
2019-02-21T17:17:39.594Z,62.61
2019-02-21T17:20:41.576Z,62.59
2019-02-21T17:23:43.612Z,62.66
2019-02-21T17:26:47.833Z,62.61
2019-02-21T17:29:50.931Z,62.61
2019-02-21T17:32:52.964Z,62.50
2019-02-21T17:35:56.757Z,62.49
2019-02-21T17:38:59.110Z,62.26
2019-02-21T17:42:02.507Z,62.19
2019-02-21T17:45:05.969Z,62.06
2019-02-21T17:48:07.957Z,62.07
2019-02-21T17:51:14.258Z,62.25
2019-02-21T17:54:17.861Z,62.36
2019-02-21T17:57:21.066Z,62.55
2019-02-21T18:00:28.405Z,62.45
2019-02-21T18:03:33.916Z,62.39
2019-02-21T18:06:36.193Z,62.27
2019-02-21T18:09:38.521Z,62.47
2019-02-21T18:12:43.919Z,62.38
2019-02-21T18:15:46.888Z,62.44
2019-02-21T18:18:48.807Z,62.43
2019-02-21T18:21:57.901Z,62.56
2019-02-21T18:25:01.333Z,62.47
2019-02-21T18:28:03.753Z,62.44
2019-02-21T18:31:05.658Z,62.47
2019-02-21T18:34:07.563Z,62.54
2019-02-21T18:37:10.853Z,62.85
2019-02-21T18:40:17.785Z,63.04
2019-02-21T18:43:21.719Z,62.98
2019-02-21T18:46:23.731Z,63.02
2019-02-21T18:49:25.716Z,62.99
2019-02-21T18:52:28.518Z,63.26
2019-02-21T18:55:30.984Z,63.17
2019-02-21T18:58:33.325Z,63.28
2019-02-21T19:01:35.404Z,63.02
2019-02-21T19:04:37.506Z,62.80
2019-02-21T19:07:39.495Z,62.64
2019-02-21T19:10:41.504Z,62.54
2019-02-21T19:13:46.932Z,62.53
2019-02-21T19:16:51.080Z,62.64
2019-02-21T19:19:55.542Z,62.49
2019-02-21T19:22:58.511Z,62.60
2019-02-21T19:26:00.474Z,62.70
2019-02-21T19:29:03.642Z,62.66
2019-02-21T19:32:05.586Z,62.71
2019-02-21T19:35:09.048Z,62.76
2019-02-21T19:38:12.808Z,62.75
2019-02-21T19:41:15.410Z,62.72
2019-02-21T19:44:18.447Z,62.58
2019-02-21T19:47:23.753Z,62.58
2019-02-21T19:50:26.078Z,62.51
2019-02-21T19:53:28.384Z,62.54
2019-02-21T19:56:31.732Z,62.50
2019-02-21T19:59:35.788Z,62.84
2019-02-21T20:02:40.137Z,63.28
2019-02-21T20:05:42.153Z,63.16
2019-02-21T20:08:45.499Z,63.22
2019-02-21T20:11:50.660Z,63.16
2019-02-21T20:14:54.320Z,63.05
2019-02-21T20:17:59.305Z,63.00
2019-02-21T20:21:01.276Z,63.14
2019-02-21T20:24:09.091Z,62.99
2019-02-21T20:27:13.628Z,62.90
2019-02-21T20:30:17.082Z,62.87
2019-02-21T20:33:20.335Z,62.94
2019-02-21T20:36:22.346Z,63.18
2019-02-21T20:39:24.706Z,63.33
2019-02-21T20:42:26.651Z,63.34
2019-02-21T20:45:28.667Z,63.45
2019-02-21T20:48:36.560Z,63.64
2019-02-21T20:51:38.475Z,63.75
2019-02-21T20:54:43.717Z,64.17
2019-02-21T20:57:45.746Z,64.29
2019-02-21T21:00:47.716Z,64.26
2019-02-21T21:03:50.761Z,64.22
2019-02-21T21:06:53.848Z,64.50
2019-02-21T21:09:56.224Z,64.83
2019-02-21T21:13:02.430Z,64.99
2019-02-21T21:16:06.421Z,65.00
2019-02-21T21:19:09.833Z,65.38
2019-02-21T21:22:11.781Z,65.68
2019-02-21T21:25:17.436Z,66.01
2019-02-21T21:28:19.402Z,66.21
2019-02-21T21:31:21.310Z,66.53
2019-02-21T21:34:25.111Z,66.85
2019-02-21T21:37:27.022Z,67.05
2019-02-21T21:40:28.951Z,67.43
2019-02-21T21:43:30.844Z,67.30
2019-02-21T21:46:32.858Z,67.40
2019-02-21T21:49:34.922Z,67.66
2019-02-21T21:52:36.843Z,67.79
2019-02-21T21:55:38.790Z,67.73
2019-02-21T21:58:40.732Z,67.79
2019-02-21T22:01:42.703Z,68.06
2019-02-21T22:04:44.619Z,68.12
2019-02-21T22:07:49.081Z,68.15
2019-02-21T22:10:50.419Z,68.24
2019-02-21T22:13:52.670Z,68.23
2019-02-21T22:16:54.775Z,68.36
2019-02-21T22:19:56.795Z,68.29
2019-02-21T22:22:58.784Z,68.52
2019-02-21T22:26:00.889Z,68.59
2019-02-21T22:29:02.953Z,68.73
2019-02-21T22:32:04.912Z,68.68
2019-02-21T22:35:07.272Z,68.98
2019-02-21T22:38:09.306Z,68.75
2019-02-21T22:41:11.315Z,69.03
2019-02-21T22:44:13.353Z,68.97
2019-02-21T22:47:15.455Z,68.96
2019-02-21T22:50:18.486Z,68.95
2019-02-21T22:53:20.433Z,69.03
2019-02-21T22:56:22.408Z,69.02
2019-02-21T22:59:24.443Z,69.03
2019-02-21T23:02:27.742Z,68.96
2019-02-21T23:05:50.239Z,68.86
2019-02-21T23:08:53.554Z,69.06
2019-02-21T23:11:55.500Z,69.00
2019-02-21T23:14:57.585Z,69.10
2019-02-21T23:18:00.181Z,69.08
2019-02-21T23:21:02.327Z,69.09
2019-02-21T23:24:04.586Z,69.06
2019-02-21T23:27:06.595Z,69.24
2019-02-21T23:30:09.359Z,69.07
2019-02-21T23:33:11.412Z,68.99
2019-02-21T23:36:13.450Z,69.09
2019-02-21T23:39:15.449Z,69.10
2019-02-21T23:42:18.217Z,69.18
2019-02-21T23:45:20.534Z,69.07
2019-02-21T23:48:22.546Z,69.13
2019-02-21T23:51:24.584Z,69.24
2019-02-21T23:54:26.587Z,69.10
2019-02-21T23:57:28.638Z,69.00
